^^
NorthLandsweather Station Historical Data
 
Daily Summary for June 20, 2018 Units:  English    Metric   Both
Daily Weekly Monthly Yearly Custom
  Current: High: Low: Average:
Temperature: 58.5 °F 58.7 °F 57.3 °F 58.2 °F
Dew Point: 57.4 °F 57.6 °F 55.5 °F 56.7 °F
Humidity: 96% 96% 92% 95%
Wind Speed: 0.0mph 1.0mph 0.0mph 0mph
Wind Gust: 0.0mph 0.1mph - -
WindCalm - - NW
Pressure: 29.93 in 29.97 in 29.92 in -
Precipitation: 0.01 in      
Historical Graphs
 
 
Tabular Data for June 20, 2018
Time Temperature Dew Point Pressure Wind Wind Speed Wind Gust Humidity Rainfall Rate (Hourly) solar
00:04 58.6 °F 56.3 °F 29.95 in Calm     92% 0.00 in 0.00 W/m2
00:09 58.5 °F 56.2 °F 29.95 in Calm     92% 0.00 in 0.00 W/m2
00:14 58.4 °F 56.1 °F 29.95 in Calm     92% 0.00 in 0.00 W/m2
00:19 58.2 °F 55.9 °F 29.95 in Calm     92% 0.00 in 0.00 W/m2
00:24 58.0 °F 55.7 °F 29.95 in Calm     92% 0.00 in 0.00 W/m2
00:29 58.0 °F 56.0 °F 29.95 in Calm     93% 0.00 in 0.00 W/m2
00:34 57.9 °F 55.9 °F 29.96 in Calm     93% 0.00 in 0.00 W/m2
00:39 57.8 °F 55.8 °F 29.96 in Calm     93% 0.00 in 0.00 W/m2
00:44 57.7 °F 55.7 °F 29.96 in Calm     93% 0.00 in 0.00 W/m2
00:49 57.6 °F 55.6 °F 29.97 in Calm     93% 0.00 in 0.00 W/m2
00:54 57.5 °F 55.5 °F 29.96 in Calm     93% 0.00 in 0.00 W/m2
00:59 57.4 °F 55.7 °F 29.97 in Calm     94% 0.00 in 0.00 W/m2
01:04 57.3 °F 55.6 °F 29.96 in Calm     94% 0.00 in 0.00 W/m2
01:09 57.3 °F 55.6 °F 29.97 in Calm     94% 0.00 in 0.00 W/m2
01:14 57.3 °F 55.6 °F 29.97 in Calm     94% 0.00 in 0.00 W/m2
01:19 57.3 °F 55.6 °F 29.97 in Calm     94% 0.00 in 0.00 W/m2
01:24 57.3 °F 55.6 °F 29.97 in Calm     94% 0.00 in 0.00 W/m2
01:29 57.4 °F 56.0 °F 29.97 in Calm     95% 0.00 in 0.00 W/m2
01:34 57.5 °F 56.1 °F 29.97 in Calm     95% 0.00 in 0.00 W/m2
01:39 57.5 °F 56.1 °F 29.97 in Calm     95% 0.00 in 0.00 W/m2
01:44 57.6 °F 56.2 °F 29.97 in Calm     95% 0.00 in 0.00 W/m2
01:49 57.7 °F 56.3 °F 29.97 in Calm     95% 0.00 in 0.00 W/m2
01:54 57.7 °F 56.3 °F 29.97 in Calm     95% 0.00 in 0.00 W/m2
01:59 57.7 °F 56.3 °F 29.97 in Calm     95% 0.00 in 0.00 W/m2
02:04 57.8 °F 56.4 °F 29.97 in Calm     95% 0.00 in 0.00 W/m2
02:09 57.8 °F 56.4 °F 29.96 in Calm     95% 0.00 in 0.00 W/m2
02:14 57.8 °F 56.4 °F 29.96 in Calm     95% 0.00 in 0.00 W/m2
02:19 57.8 °F 56.4 °F 29.96 in Calm     95% 0.00 in 0.00 W/m2
02:24 57.9 °F 56.5 °F 29.96 in Calm     95% 0.00 in 0.00 W/m2
02:29 58.0 °F 56.6 °F 29.96 in Calm     95% 0.00 in 0.00 W/m2
02:34 58.1 °F 56.7 °F 29.96 in Calm     95% 0.00 in 0.00 W/m2
02:39 58.1 °F 56.7 °F 29.95 in Calm     95% 0.00 in 0.00 W/m2
02:44 58.1 °F 56.7 °F 29.95 in Calm     95% 0.00 in 0.00 W/m2
02:49 58.1 °F 56.7 °F 29.95 in Calm     95% 0.00 in 0.00 W/m2
02:54 58.2 °F 56.8 °F 29.95 in Calm     95% 0.00 in 0.00 W/m2
02:59 58.3 °F 56.9 °F 29.95 in Calm     95% 0.00 in 0.00 W/m2
03:04 58.3 °F 56.9 °F 29.95 in Calm     95% 0.00 in 0.00 W/m2
03:09 58.3 °F 56.9 °F 29.94 in Calm     95% 0.00 in 0.00 W/m2
03:14 58.3 °F 56.9 °F 29.94 in Calm     95% 0.00 in 0.00 W/m2
03:19 58.4 °F 57.0 °F 29.93 in Calm     95% 0.00 in 0.00 W/m2
03:24 58.4 °F 57.0 °F 29.93 in Calm     95% 0.00 in 0.00 W/m2
03:29 58.4 °F 57.0 °F 29.93 in Calm     95% 0.00 in 0.00 W/m2
03:34 58.5 °F 57.1 °F 29.93 in Calm     95% 0.00 in 0.00 W/m2
03:39 58.5 °F 57.1 °F 29.93 in Calm     95% 0.00 in 0.00 W/m2
03:44 58.6 °F 57.2 °F 29.93 in Calm     95% 0.00 in 0.00 W/m2
03:49 58.6 °F 57.2 °F 29.92 in Calm     95% 0.00 in 0.00 W/m2
03:54 58.6 °F 57.2 °F 29.92 in Calm     95% 0.00 in 0.00 W/m2
03:59 58.7 °F 57.3 °F 29.92 in NW 1.0 mph 0.1 mph 95% 0.00 in 0.00 W/m2
04:04 58.7 °F 57.3 °F 29.92 in Calm     95% 0.00 in 0.00 W/m2
04:09 58.7 °F 57.3 °F 29.92 in Calm     95% 0.01 in 0.00 W/m2
04:14 58.7 °F 57.3 °F 29.92 in Calm     95% 0.01 in 0.00 W/m2
04:19 58.7 °F 57.3 °F 29.92 in Calm     95% 0.01 in 0.00 W/m2
04:24 58.6 °F 57.2 °F 29.93 in Calm     95% 0.01 in 0.00 W/m2
04:29 58.6 °F 57.2 °F 29.92 in Calm     95% 0.01 in 0.00 W/m2
04:34 58.6 °F 57.2 °F 29.93 in Calm     95% 0.01 in 0.00 W/m2
04:39 58.6 °F 57.2 °F 29.93 in Calm     95% 0.01 in 0.00 W/m2
04:44 58.6 °F 57.2 °F 29.93 in Calm     95% 0.01 in 0.00 W/m2
04:49 58.6 °F 57.5 °F 29.93 in Calm     96% 0.01 in 0.00 W/m2
04:54 58.7 °F 57.6 °F 29.93 in Calm     96% 0.01 in 0.00 W/m2
04:59 58.6 °F 57.5 °F 29.93 in Calm     96% 0.01 in 0.00 W/m2
05:04 58.6 °F 57.2 °F 29.93 in Calm     95% 0.01 in 0.00 W/m2
05:09 58.5 °F 57.4 °F 29.93 in Calm     96% 0.00 in 98.70 W/m2
05:14 58.5 °F 57.4 °F 29.93 in Calm     96% 0.00 in 140.10 W/m2
05:19 58.6 °F 57.5 °F 29.93 in Calm     96% 0.00 in 144.10 W/m2
05:24 58.6 °F 57.5 °F 29.93 in Calm     96% 0.00 in 174.40 W/m2
05:29 58.6 °F 57.5 °F 29.93 in Calm     96% 0.00 in 192.60 W/m2
05:34 58.6 °F 57.5 °F 29.93 in Calm     96% 0.00 in 195.60 W/m2
05:39 58.6 °F 57.5 °F 29.93 in Calm     96% 0.00 in 202.70 W/m2
05:44 58.6 °F 57.5 °F 29.93 in Calm     96% 0.00 in 219.90 W/m2
05:49 58.6 °F 57.5 °F 29.93 in Calm     96% 0.00 in 223.90 W/m2
05:54 58.5 °F 57.4 °F 29.93 in Calm     96% 0.00 in 226.90 W/m2
Winter, Wisconsin USA
Compliments of Weather Underground - 2 mb